LFRZ/SNR METAR and TAF weather

Enter ICAO airport designator
Station Type Date Time Source
LFRZ METAR 2019/12/12 09:00 UTC NOAA

LFRZ 120900Z AUTO 21017KT 9999 OVC025/// ///TCU 11/09 Q1001 BECMG 21020G35KT 4500 RA BKN012 SCT040CB BKN050


Station Type Date Time Source
LFRZ Decoded METAR 2019/12/12 09:00 UTC NOAA

St-Nazaire, France (LFRZ) 47-19N 002-10W 4M
Dec 12, 2019 - 04:00 AM EST / 2019.12.12 0900 UTC
Wind: from the SSW (210 degrees) at 20 MPH (17 KT):0
Visibility: greater than 7 mile(s):0
Sky conditions: overcast
Weather: Cumulonimbus clouds, towering cumulus clouds observed
Temperature: 51 F (11 C)
Dew Point: 48 F (9 C)
Relative Humidity: 87%
Pressure (altimeter): 29.56 in. Hg (1001 hPa)
ob: LFRZ 120900Z AUTO 21017KT 9999 OVC025/// ///TCU 11/09 Q1001 BECMG 21020G35KT 4500 RA BKN012 SCT040CB BKN050
cycle: 9

Station Type Date Time Source
LFRZ TAF 2019/12/12 06:45 UTC NOAA

TAF LFRZ 120500Z 1206/1306 24010KT 9999 SCT020 BKN050
TEMPO 1206/1209 4000 SHRA SCT010 BKN020TCU
BECMG 1209/1211 21020G35KT 4500 RA BKN012 SCT040CB BKN050
BECMG 1213/1215 29020G30KT 9999 SCT020TCU
BECMG 1216/1218 28015KT
TEMPO 1219/1306 25020G35KT 3000 SHRA BKN012 BKN020CB PROB40
TEMPO 1300/1304 26035G50KT

Example: see airport list